createdAt,value
2022-09-21T00:01:45.620Z,16.17
2022-09-21T00:04:14.647Z,20.10
2022-09-21T00:06:43.570Z,17.03
2022-09-21T00:09:12.763Z,13.17
2022-09-21T00:11:41.806Z,12.20
2022-09-21T00:14:14.809Z,12.50
2022-09-21T00:16:44.727Z,17.70
2022-09-21T00:19:13.769Z,15.10
2022-09-21T00:21:50.179Z,13.47
2022-09-21T00:24:19.077Z,15.57
2022-09-21T00:26:48.053Z,15.50
2022-09-21T00:29:18.548Z,13.80
2022-09-21T00:31:47.583Z,14.47
2022-09-21T00:34:16.482Z,21.00
2022-09-21T00:36:45.447Z,16.53
2022-09-21T00:39:14.682Z,11.90
2022-09-21T00:41:43.653Z,12.97
2022-09-21T00:44:32.034Z,12.43
2022-09-21T00:47:05.987Z,11.70
2022-09-21T00:49:36.120Z,12.23
2022-09-21T00:52:08.177Z,13.10
2022-09-21T00:54:41.678Z,12.37
2022-09-21T00:57:11.267Z,12.57
2022-09-21T00:59:42.161Z,12.37
2022-09-21T01:02:11.232Z,20.20
2022-09-21T01:04:40.454Z,9.70
2022-09-21T01:07:13.562Z,13.00
2022-09-21T01:09:44.121Z,12.30
2022-09-21T01:12:27.812Z,11.00
2022-09-21T01:15:11.885Z,12.50
2022-09-21T01:17:48.109Z,17.30
2022-09-21T01:20:53.329Z,13.87
2022-09-21T01:23:53.098Z,12.40
2022-09-21T01:26:33.907Z,12.60
2022-09-21T01:29:18.165Z,13.30
2022-09-21T01:31:52.154Z,14.07
2022-09-21T01:34:27.749Z,9.73
2022-09-21T01:37:00.130Z,13.57
2022-09-21T01:39:31.172Z,10.47
2022-09-21T01:42:01.306Z,13.43
2022-09-21T01:44:34.737Z,10.20
2022-09-21T01:47:05.390Z,9.27
2022-09-21T01:49:39.812Z,13.50
2022-09-21T01:52:15.574Z,10.50
2022-09-21T01:54:48.339Z,8.57
2022-09-21T01:57:25.649Z,13.03
2022-09-21T01:59:57.610Z,15.50
2022-09-21T02:02:33.352Z,11.03
2022-09-21T02:05:03.945Z,11.70
2022-09-21T02:07:33.746Z,10.93
2022-09-21T02:10:03.864Z,12.67
2022-09-21T02:12:33.041Z,19.70
2022-09-21T02:15:03.899Z,14.03
2022-09-21T02:17:38.462Z,14.90
2022-09-21T02:20:19.445Z,14.63
2022-09-21T02:23:00.922Z,12.37
2022-09-21T02:25:38.618Z,10.23
2022-09-21T02:28:13.276Z,14.87
2022-09-21T02:30:49.044Z,15.23
2022-09-21T02:33:26.076Z,10.33
2022-09-21T02:36:02.114Z,10.37
2022-09-21T02:38:36.797Z,13.83
2022-09-21T02:41:13.934Z,12.07
2022-09-21T02:43:46.940Z,13.20
2022-09-21T02:46:21.106Z,19.47
2022-09-21T02:48:53.292Z,10.77
2022-09-21T02:51:28.323Z,14.57
2022-09-21T02:53:59.552Z,16.13
2022-09-21T02:56:29.030Z,13.40
2022-09-21T02:59:00.292Z,13.37
2022-09-21T03:01:32.050Z,13.27
2022-09-21T03:04:01.094Z,17.13
2022-09-21T03:06:30.043Z,14.93
2022-09-21T03:08:59.020Z,9.27
2022-09-21T03:11:27.909Z,13.80
2022-09-21T03:13:56.828Z,9.57
2022-09-21T03:16:25.486Z,12.37
2022-09-21T03:18:55.472Z,7.90
2022-09-21T03:21:24.198Z,13.33
2022-09-21T03:23:52.993Z,10.90
2022-09-21T03:26:22.731Z,14.67
2022-09-21T03:28:53.539Z,16.50
2022-09-21T03:31:22.601Z,11.80
2022-09-21T03:33:51.618Z,10.80
2022-09-21T03:36:22.129Z,12.93
2022-09-21T03:38:50.819Z,10.07
2022-09-21T03:41:19.479Z,8.43
2022-09-21T03:43:48.077Z,11.27
2022-09-21T03:46:17.183Z,17.73
2022-09-21T03:48:47.665Z,11.77
2022-09-21T03:51:16.305Z,10.23
2022-09-21T03:53:46.201Z,10.43
2022-09-21T03:56:14.846Z,14.53
2022-09-21T03:58:43.898Z,10.30
2022-09-21T04:01:12.521Z,10.40
2022-09-21T04:03:41.097Z,10.13
2022-09-21T04:06:10.994Z,15.03
2022-09-21T04:08:39.766Z,14.70
2022-09-21T04:11:12.805Z,13.73
2022-09-21T04:13:42.622Z,7.73
2022-09-21T04:16:12.251Z,10.03
2022-09-21T04:18:40.856Z,8.27
2022-09-21T04:21:09.446Z,13.30
2022-09-21T04:23:38.364Z,14.00
2022-09-21T04:26:19.888Z,9.47
2022-09-21T04:28:48.509Z,9.30
2022-09-21T04:31:17.151Z,11.17
2022-09-21T04:33:45.965Z,17.70
2022-09-21T04:36:14.493Z,9.50
2022-09-21T04:38:43.080Z,14.00
2022-09-21T04:41:11.998Z,11.03
2022-09-21T04:43:43.458Z,11.93
2022-09-21T04:46:13.760Z,10.57
2022-09-21T04:48:43.289Z,8.57
2022-09-21T04:51:12.792Z,10.20
2022-09-21T04:53:42.940Z,9.57
2022-09-21T04:56:14.941Z,9.80
2022-09-21T04:58:45.483Z,8.73
2022-09-21T05:01:14.244Z,11.73
2022-09-21T05:03:42.840Z,14.87
2022-09-21T05:06:13.477Z,10.70
2022-09-21T05:08:59.870Z,12.10
2022-09-21T05:11:28.534Z,18.63
2022-09-21T05:13:58.570Z,13.87
2022-09-21T05:16:27.325Z,15.33
2022-09-21T05:18:56.167Z,11.90
2022-09-21T05:21:24.759Z,11.27
2022-09-21T05:23:53.502Z,8.90
2022-09-21T05:26:22.293Z,11.60
2022-09-21T05:28:51.553Z,7.83
2022-09-21T05:31:33.027Z,14.00
2022-09-21T05:34:11.115Z,12.43
2022-09-21T05:36:50.006Z,11.03
2022-09-21T05:39:19.245Z,11.43
2022-09-21T05:41:48.394Z,13.67
2022-09-21T05:44:17.570Z,15.70
2022-09-21T05:46:56.350Z,15.37
2022-09-21T05:49:38.543Z,10.37
2022-09-21T05:52:14.606Z,11.03
2022-09-21T05:54:55.919Z,12.30
2022-09-21T05:57:36.093Z,12.47
2022-09-21T06:00:15.613Z,13.30
2022-09-21T06:03:17.585Z,14.03
2022-09-21T06:05:46.593Z,21.10
2022-09-21T06:08:15.224Z,19.13
2022-09-21T06:10:43.907Z,21.70
2022-09-21T06:13:12.448Z,10.03
2022-09-21T06:15:42.194Z,14.97
2022-09-21T06:18:17.577Z,13.97
2022-09-21T06:20:46.915Z,14.50
2022-09-21T06:23:16.994Z,12.10
2022-09-21T06:25:45.536Z,11.53
2022-09-21T06:28:14.820Z,12.33
2022-09-21T06:30:45.042Z,13.40
2022-09-21T06:33:20.729Z,11.57
2022-09-21T06:35:54.549Z,12.33
2022-09-21T06:38:23.469Z,10.50
2022-09-21T06:40:52.768Z,10.77
2022-09-21T06:43:21.591Z,9.93
2022-09-21T06:45:56.937Z,8.80
2022-09-21T06:48:27.080Z,11.37
2022-09-21T06:50:59.566Z,12.23
2022-09-21T06:53:29.686Z,11.87
2022-09-21T06:56:02.811Z,15.57
2022-09-21T06:58:34.275Z,10.73
2022-09-21T07:01:07.805Z,12.53
2022-09-21T07:03:38.511Z,10.83
2022-09-21T07:06:08.682Z,12.43
2022-09-21T07:11:27.658Z,14.13
2022-09-21T07:13:58.451Z,8.87
2022-09-21T07:16:28.165Z,14.23
2022-09-21T07:19:10.098Z,10.80
2022-09-21T07:21:39.441Z,12.60
2022-09-21T07:24:12.158Z,13.90
2022-09-21T07:26:41.239Z,15.80
2022-09-21T07:29:09.982Z,11.17
2022-09-21T07:31:38.924Z,18.83
2022-09-21T07:34:09.092Z,12.40
2022-09-21T07:36:37.675Z,15.37
2022-09-21T07:39:06.449Z,11.73
2022-09-21T07:41:37.326Z,13.30
2022-09-21T07:44:06.833Z,13.03
2022-09-21T07:46:36.146Z,13.23
2022-09-21T07:49:05.910Z,17.60
2022-09-21T07:51:36.023Z,19.57
2022-09-21T07:54:05.764Z,12.17
2022-09-21T07:56:34.370Z,15.53
2022-09-21T07:59:07.632Z,9.83
2022-09-21T08:01:38.242Z,17.57
2022-09-21T08:04:17.822Z,11.37
2022-09-21T08:06:56.649Z,13.83
2022-09-21T08:09:25.209Z,13.10
2022-09-21T08:11:55.772Z,17.30
2022-09-21T08:14:26.596Z,12.90
2022-09-21T08:16:55.292Z,14.97
2022-09-21T08:19:25.938Z,9.63
2022-09-21T08:21:57.864Z,14.60
2022-09-21T08:24:27.381Z,16.20
2022-09-21T08:26:57.941Z,12.93
2022-09-21T08:29:27.028Z,12.03
2022-09-21T08:31:55.622Z,9.93
2022-09-21T08:34:24.332Z,11.07
2022-09-21T08:36:55.432Z,12.47
2022-09-21T08:39:26.730Z,10.37
2022-09-21T08:42:29.156Z,11.60
2022-09-21T08:45:00.857Z,12.83
2022-09-21T08:47:38.173Z,11.60
2022-09-21T08:50:17.337Z,11.97
2022-09-21T08:52:47.874Z,10.70
2022-09-21T08:55:20.647Z,10.87
2022-09-21T08:57:49.516Z,9.73
2022-09-21T09:00:20.204Z,11.03
2022-09-21T09:03:13.175Z,10.70
2022-09-21T09:05:48.357Z,15.20
2022-09-21T09:08:41.533Z,12.80
2022-09-21T09:11:29.651Z,11.23
2022-09-21T09:14:15.657Z,13.20
2022-09-21T09:16:54.840Z,13.30
2022-09-21T09:19:28.968Z,14.50
2022-09-21T09:21:58.108Z,16.87
2022-09-21T09:24:34.027Z,14.53
2022-09-21T09:27:08.546Z,14.43
2022-09-21T09:29:47.000Z,13.67
2022-09-21T09:32:17.466Z,14.93
2022-09-21T09:34:53.995Z,15.40
2022-09-21T09:37:27.379Z,12.17
2022-09-21T09:39:59.024Z,11.87
2022-09-21T09:42:45.091Z,12.33
2022-09-21T09:45:33.048Z,13.33
2022-09-21T09:48:15.922Z,16.57
2022-09-21T09:50:47.797Z,16.60
2022-09-21T09:53:18.622Z,13.03
2022-09-21T09:55:50.143Z,13.27
2022-09-21T09:58:22.777Z,13.23
2022-09-21T10:00:54.306Z,11.83
2022-09-21T10:03:26.737Z,12.90
2022-09-21T10:05:56.129Z,13.60
2022-09-21T10:08:43.250Z,13.33
2022-09-21T10:11:13.519Z,16.03
2022-09-21T10:13:45.930Z,15.90
2022-09-21T10:16:16.521Z,13.83
2022-09-21T10:18:50.622Z,15.23
2022-09-21T10:21:22.729Z,13.90
2022-09-21T10:23:53.669Z,14.13
2022-09-21T10:26:23.356Z,13.27
2022-09-21T10:28:59.472Z,13.07
2022-09-21T10:31:29.736Z,14.00
2022-09-21T10:34:12.613Z,13.13
2022-09-21T10:36:41.442Z,14.37
2022-09-21T10:39:19.258Z,15.77
2022-09-21T10:41:58.689Z,14.50
2022-09-21T10:44:36.304Z,15.00
2022-09-21T10:47:18.000Z,14.10
2022-09-21T10:49:50.494Z,15.87
2022-09-21T10:52:21.632Z,15.33
2022-09-21T10:54:53.172Z,16.30
2022-09-21T10:57:24.997Z,14.57
2022-09-21T10:59:55.004Z,16.33
2022-09-21T11:02:35.025Z,15.40
2022-09-21T11:05:10.831Z,15.40
2022-09-21T11:07:46.634Z,17.20
2022-09-21T11:10:22.932Z,15.90
2022-09-21T11:13:04.353Z,16.03
2022-09-21T11:15:42.751Z,14.63
2022-09-21T11:18:20.211Z,15.20
2022-09-21T11:20:53.813Z,41.20
2022-09-21T11:23:37.573Z,15.30
2022-09-21T11:26:15.120Z,16.00
2022-09-21T11:28:50.929Z,15.33
2022-09-21T11:31:45.159Z,16.10
2022-09-21T11:34:40.862Z,15.27
2022-09-21T11:37:18.545Z,16.00
2022-09-21T11:40:01.228Z,17.20
2022-09-21T11:42:54.319Z,15.53
2022-09-21T11:45:50.536Z,15.87
2022-09-21T11:48:32.222Z,16.70
2022-09-21T11:51:09.815Z,16.67
2022-09-21T11:53:49.954Z,17.37
2022-09-21T11:56:42.605Z,16.07
2022-09-21T11:59:34.435Z,16.77
2022-09-21T12:02:24.632Z,16.10
2022-09-21T12:05:01.895Z,16.80
2022-09-21T12:07:45.624Z,16.10
2022-09-21T12:10:28.261Z,15.70
2022-09-21T12:13:01.973Z,16.13
2022-09-21T12:15:39.069Z,17.10
2022-09-21T12:18:13.125Z,16.83
2022-09-21T12:20:48.499Z,18.47
2022-09-21T12:23:27.855Z,17.17
2022-09-21T12:25:59.728Z,16.87
2022-09-21T12:28:32.493Z,16.83
2022-09-21T12:31:05.504Z,16.73
2022-09-21T12:33:40.596Z,17.13
2022-09-21T12:36:17.340Z,16.97
2022-09-21T12:38:53.973Z,17.40
2022-09-21T12:41:30.560Z,16.73
2022-09-21T12:44:06.974Z,16.47
2022-09-21T12:46:40.365Z,17.37
2022-09-21T12:49:14.682Z,17.20
2022-09-21T12:51:49.341Z,17.90
2022-09-21T12:54:27.861Z,17.30
2022-09-21T12:57:17.861Z,15.93
2022-09-21T13:00:01.016Z,17.30
2022-09-21T13:02:36.193Z,17.23
2022-09-21T13:05:12.519Z,18.03
2022-09-21T13:08:04.456Z,19.67
2022-09-21T13:10:45.951Z,18.13
2022-09-21T13:13:31.779Z,17.93
2022-09-21T13:16:01.573Z,18.00
2022-09-21T13:18:36.193Z,17.93
2022-09-21T13:21:18.428Z,18.50
2022-09-21T13:23:58.334Z,20.43
2022-09-21T13:26:34.801Z,16.10
2022-09-21T13:29:40.924Z,16.63
2022-09-21T13:32:24.464Z,18.70
2022-09-21T13:34:53.140Z,19.50
2022-09-21T13:37:31.664Z,17.00
2022-09-21T13:40:35.024Z,17.30
2022-09-21T13:43:26.397Z,16.90
2022-09-21T13:45:57.896Z,18.23
2022-09-21T13:48:30.862Z,17.30
2022-09-21T13:51:08.592Z,18.47
2022-09-21T13:53:42.101Z,17.27
2022-09-21T13:56:19.367Z,18.30
2022-09-21T13:58:53.891Z,18.70
2022-09-21T14:01:45.811Z,17.60
2022-09-21T14:04:28.226Z,18.23
2022-09-21T14:06:58.468Z,19.80
2022-09-21T14:09:29.791Z,16.70
2022-09-21T14:12:01.718Z,17.20
2022-09-21T14:14:37.040Z,17.00
2022-09-21T14:17:07.179Z,17.83
2022-09-21T14:20:08.091Z,17.47
2022-09-21T14:22:44.865Z,20.13
2022-09-21T14:25:32.433Z,17.30
2022-09-21T14:28:05.914Z,17.00
2022-09-21T14:30:38.216Z,17.97
2022-09-21T14:33:33.272Z,17.30
2022-09-21T14:36:07.591Z,17.90
2022-09-21T14:38:45.984Z,18.10
2022-09-21T14:41:19.919Z,17.40
2022-09-21T14:43:53.705Z,17.73
2022-09-21T14:46:47.947Z,16.73
2022-09-21T14:49:34.940Z,16.73
2022-09-21T14:52:20.226Z,17.50
2022-09-21T14:55:01.263Z,16.10
2022-09-21T14:57:50.269Z,16.63
2022-09-21T15:00:23.524Z,16.80
2022-09-21T15:03:14.247Z,17.50
2022-09-21T15:05:46.916Z,18.30
2022-09-21T15:08:58.275Z,17.70
2022-09-21T15:11:31.747Z,16.27
2022-09-21T15:14:18.157Z,16.77
2022-09-21T15:16:50.066Z,18.37
2022-09-21T15:19:27.372Z,17.73
2022-09-21T15:21:57.542Z,17.70
2022-09-21T15:24:29.692Z,17.70
2022-09-21T15:27:07.815Z,18.27
2022-09-21T15:29:37.689Z,17.63
2022-09-21T15:32:07.812Z,17.00
2022-09-21T15:34:38.109Z,16.37
2022-09-21T15:37:15.952Z,17.00
2022-09-21T15:39:45.110Z,18.53
2022-09-21T15:42:22.966Z,17.20
2022-09-21T15:45:11.420Z,17.30
2022-09-21T15:47:45.071Z,16.73
2022-09-21T15:50:17.350Z,17.77
2022-09-21T15:52:51.313Z,17.83
2022-09-21T15:55:22.133Z,16.17
2022-09-21T15:57:53.230Z,17.70
2022-09-21T16:00:25.476Z,17.30
2022-09-21T16:03:04.514Z,17.23
2022-09-21T16:05:50.126Z,16.60
2022-09-21T16:08:31.054Z,16.80
2022-09-21T16:11:20.072Z,14.90
2022-09-21T16:14:07.166Z,16.00
2022-09-21T16:17:06.762Z,16.87
2022-09-21T16:19:43.147Z,16.37
2022-09-21T16:22:17.390Z,16.00
2022-09-21T16:24:47.135Z,17.67
2022-09-21T16:27:19.322Z,16.27
2022-09-21T16:29:50.193Z,15.63
2022-09-21T16:32:29.865Z,15.50
2022-09-21T16:35:27.370Z,14.50
2022-09-21T16:37:59.535Z,14.27
2022-09-21T16:40:28.646Z,13.57
2022-09-21T16:42:58.923Z,14.37
2022-09-21T16:45:29.712Z,13.40
2022-09-21T16:47:59.671Z,17.17
2022-09-21T16:50:28.385Z,15.97
2022-09-21T16:52:58.341Z,14.47
2022-09-21T16:55:29.224Z,15.37
2022-09-21T16:58:00.585Z,15.60
2022-09-21T17:00:35.868Z,15.03
2022-09-21T17:03:04.579Z,15.17
2022-09-21T17:05:33.142Z,13.53
2022-09-21T17:08:03.539Z,13.17
2022-09-21T17:10:37.867Z,12.87
2022-09-21T17:13:08.898Z,13.87
2022-09-21T17:15:41.425Z,14.97
2022-09-21T17:18:11.775Z,12.97
2022-09-21T17:20:42.795Z,14.27
2022-09-21T17:23:13.370Z,13.87
2022-09-21T17:25:41.931Z,13.63
2022-09-21T17:28:15.143Z,16.97
2022-09-21T17:30:46.495Z,13.20
2022-09-21T17:33:15.176Z,14.97
2022-09-21T17:35:43.830Z,14.30
2022-09-21T17:38:14.676Z,16.17
2022-09-21T17:40:44.143Z,14.47
2022-09-21T17:43:33.221Z,15.97
2022-09-21T17:46:08.980Z,14.00
2022-09-21T17:48:40.656Z,15.23
2022-09-21T17:51:10.622Z,21.37
2022-09-21T17:53:41.721Z,16.53
2022-09-21T17:56:28.514Z,17.60
2022-09-21T17:59:01.985Z,18.87
2022-09-21T18:01:33.961Z,14.23
2022-09-21T18:04:03.590Z,16.40
2022-09-21T18:06:35.806Z,15.13
2022-09-21T18:09:06.641Z,18.37
2022-09-21T18:11:48.493Z,12.33
2022-09-21T18:14:28.008Z,13.47
2022-09-21T18:17:07.026Z,15.20
2022-09-21T18:19:45.419Z,12.83
2022-09-21T18:22:24.872Z,12.43
2022-09-21T18:24:57.920Z,14.20
2022-09-21T18:27:27.104Z,13.93
2022-09-21T18:29:56.134Z,18.33
2022-09-21T18:32:44.655Z,15.20
2022-09-21T18:35:50.979Z,16.93
2022-09-21T18:38:26.993Z,18.97
2022-09-21T18:41:20.411Z,17.00
2022-09-21T18:44:05.177Z,18.93
2022-09-21T18:46:43.717Z,21.27
2022-09-21T18:49:23.965Z,28.00
2022-09-21T18:51:57.848Z,22.47
2022-09-21T18:54:27.280Z,22.57
2022-09-21T18:56:57.890Z,20.20
2022-09-21T18:59:31.534Z,18.40
2022-09-21T19:02:01.234Z,27.43
2022-09-21T19:04:30.663Z,21.43
2022-09-21T19:07:08.645Z,23.57
2022-09-21T19:09:45.618Z,22.00
2022-09-21T19:12:25.244Z,23.47
2022-09-21T19:15:03.407Z,20.47
2022-09-21T19:17:49.764Z,16.90
2022-09-21T19:20:44.403Z,24.07
2022-09-21T19:23:30.127Z,21.30
2022-09-21T19:26:08.216Z,23.17
2022-09-21T19:28:58.747Z,22.73
2022-09-21T19:31:27.668Z,19.90
2022-09-21T19:33:56.475Z,21.37
2022-09-21T19:36:25.287Z,19.27
2022-09-21T19:38:54.514Z,29.77
2022-09-21T19:41:38.203Z,23.97
2022-09-21T19:44:20.116Z,17.90
2022-09-21T19:47:00.502Z,22.80
2022-09-21T19:49:37.244Z,21.30
2022-09-21T19:52:06.862Z,21.83
2022-09-21T19:54:53.248Z,19.77
2022-09-21T19:57:40.666Z,22.07
2022-09-21T20:00:13.798Z,22.67
2022-09-21T20:02:53.414Z,20.83
2022-09-21T20:05:29.086Z,21.80
2022-09-21T20:08:04.464Z,17.37
2022-09-21T20:10:50.804Z,18.03
2022-09-21T20:13:31.561Z,18.93
2022-09-21T20:16:15.779Z,18.57
2022-09-21T20:18:53.498Z,18.37
2022-09-21T20:21:23.603Z,21.13
2022-09-21T20:24:00.014Z,21.17
2022-09-21T20:26:30.159Z,20.40
2022-09-21T20:28:59.215Z,19.70
2022-09-21T20:31:29.700Z,17.37
2022-09-21T20:33:58.238Z,22.00
2022-09-21T20:36:28.680Z,24.47
2022-09-21T20:38:57.884Z,16.90
2022-09-21T20:41:26.905Z,30.53
2022-09-21T20:43:55.475Z,21.60
2022-09-21T20:46:24.034Z,19.53
2022-09-21T20:49:04.803Z,21.53
2022-09-21T20:51:34.012Z,18.93
2022-09-21T20:54:03.253Z,22.97
2022-09-21T20:56:32.575Z,17.93
2022-09-21T20:59:01.149Z,23.77
2022-09-21T21:01:29.922Z,19.90
2022-09-21T21:04:03.676Z,18.97
2022-09-21T21:06:32.694Z,22.07
2022-09-21T21:09:01.397Z,22.03
2022-09-21T21:11:30.012Z,22.27
2022-09-21T21:13:59.651Z,25.43
2022-09-21T21:16:28.252Z,22.43
2022-09-21T21:18:57.478Z,21.30
2022-09-21T21:21:27.709Z,19.83
2022-09-21T21:24:13.535Z,20.47
2022-09-21T21:27:01.225Z,19.63
2022-09-21T21:29:33.673Z,17.40
2022-09-21T21:32:03.830Z,24.30
2022-09-21T21:34:32.723Z,15.37
2022-09-21T21:37:02.818Z,26.27
2022-09-21T21:39:31.589Z,18.00
2022-09-21T21:42:00.199Z,18.87
2022-09-21T21:44:29.153Z,19.20
2022-09-21T21:47:06.144Z,20.77
2022-09-21T21:49:44.097Z,18.17
2022-09-21T21:52:14.126Z,17.67
2022-09-21T21:54:42.662Z,18.30
2022-09-21T21:57:11.241Z,19.60
2022-09-21T21:59:39.878Z,20.63
2022-09-21T22:02:08.496Z,19.37
2022-09-21T22:04:37.134Z,17.07
2022-09-21T22:07:05.924Z,19.30
2022-09-21T22:09:35.936Z,17.37
2022-09-21T22:12:04.591Z,17.00
2022-09-21T22:14:33.122Z,19.50
2022-09-21T22:17:02.061Z,14.80
2022-09-21T22:19:31.084Z,12.23
2022-09-21T22:21:59.977Z,16.03
2022-09-21T22:24:28.677Z,15.30
2022-09-21T22:26:58.595Z,20.33
2022-09-21T22:29:27.365Z,13.43
2022-09-21T22:31:55.976Z,16.77
2022-09-21T22:34:24.619Z,15.17
2022-09-21T22:36:53.877Z,16.03
2022-09-21T22:39:22.395Z,14.83
2022-09-21T22:41:50.994Z,17.67
2022-09-21T22:44:21.030Z,17.27
2022-09-21T22:46:49.549Z,17.93
2022-09-21T22:49:18.155Z,18.10
2022-09-21T22:51:46.733Z,18.37
2022-09-21T22:54:15.280Z,17.83
2022-09-21T22:56:43.831Z,20.93
2022-09-21T22:59:12.505Z,16.83
2022-09-21T23:01:42.602Z,14.70
2022-09-21T23:04:13.849Z,19.70
2022-09-21T23:06:44.821Z,16.43
2022-09-21T23:09:15.044Z,12.93
2022-09-21T23:11:47.520Z,15.20
2022-09-21T23:14:17.370Z,19.70
2022-09-21T23:16:47.595Z,12.73
2022-09-21T23:19:18.815Z,19.67
2022-09-21T23:21:50.470Z,16.07
2022-09-21T23:24:22.339Z,14.87
2022-09-21T23:26:51.784Z,13.97
2022-09-21T23:29:20.567Z,15.07
2022-09-21T23:31:50.510Z,14.47
2022-09-21T23:34:22.100Z,14.00
2022-09-21T23:36:50.691Z,12.00
2022-09-21T23:39:19.501Z,13.73
2022-09-21T23:41:48.017Z,12.10
2022-09-21T23:44:16.670Z,14.30
2022-09-21T23:46:45.269Z,11.93
2022-09-21T23:49:15.310Z,14.63
2022-09-21T23:51:43.896Z,11.97
2022-09-21T23:54:12.592Z,13.27
2022-09-21T23:56:41.206Z,11.90
2022-09-21T23:59:10.193Z,19.87
